sensor_id;sensor_type;location;lat;lon;timestamp;P1;durP1;ratioP1;P2;durP2;ratioP2
15843;SDS011;50807;52.436;13.346;2024-02-26T00:00:14;9.40;;;7.40;;
15843;SDS011;50807;52.436;13.346;2024-02-26T00:00:45;7.53;;;6.55;;
15843;SDS011;50807;52.436;13.346;2024-02-26T00:01:16;8.70;;;7.73;;
15843;SDS011;50807;52.436;13.346;2024-02-26T00:01:47;8.50;;;7.60;;
15843;SDS011;50807;52.436;13.346;2024-02-26T00:02:18;7.97;;;7.17;;
15843;SDS011;50807;52.436;13.346;2024-02-26T00:02:49;8.57;;;7.63;;
15843;SDS011;50807;52.436;13.346;2024-02-26T00:03:20;8.73;;;7.73;;
15843;SDS011;50807;52.436;13.346;2024-02-26T00:03:51;8.20;;;7.23;;
15843;SDS011;50807;52.436;13.346;2024-02-26T00:04:22;7.67;;;6.93;;
15843;SDS011;50807;52.436;13.346;2024-02-26T00:04:53;8.00;;;7.20;;
15843;SDS011;50807;52.436;13.346;2024-02-26T00:05:24;7.53;;;6.80;;
15843;SDS011;50807;52.436;13.346;2024-02-26T00:05:55;8.27;;;7.47;;
15843;SDS011;50807;52.436;13.346;2024-02-26T00:06:26;7.63;;;6.93;;
15843;SDS011;50807;52.436;13.346;2024-02-26T00:06:57;7.60;;;6.80;;
15843;SDS011;50807;52.436;13.346;2024-02-26T00:07:29;8.00;;;7.20;;
15843;SDS011;50807;52.436;13.346;2024-02-26T00:08:01;7.30;;;6.60;;
15843;SDS011;50807;52.436;13.346;2024-02-26T00:08:31;7.75;;;6.65;;
15843;SDS011;50807;52.436;13.346;2024-02-26T00:09:02;8.00;;;7.20;;
15843;SDS011;50807;52.436;13.346;2024-02-26T00:09:35;7.72;;;6.93;;
15843;SDS011;50807;52.436;13.346;2024-02-26T00:10:07;8.20;;;7.40;;
15843;SDS011;50807;52.436;13.346;2024-02-26T00:10:39;7.78;;;7.00;;
15843;SDS011;50807;52.436;13.346;2024-02-26T00:11:11;7.88;;;7.18;;
15843;SDS011;50807;52.436;13.346;2024-02-26T00:11:41;7.83;;;7.07;;
15843;SDS011;50807;52.436;13.346;2024-02-26T00:12:12;7.70;;;7.00;;
15843;SDS011;50807;52.436;13.346;2024-02-26T00:12:43;7.33;;;6.63;;
15843;SDS011;50807;52.436;13.346;2024-02-26T00:13:14;8.07;;;7.28;;
15843;SDS011;50807;52.436;13.346;2024-02-26T00:13:46;8.05;;;7.25;;
15843;SDS011;50807;52.436;13.346;2024-02-26T00:14:16;8.27;;;7.47;;
15843;SDS011;50807;52.436;13.346;2024-02-26T00:14:47;8.03;;;7.27;;
15843;SDS011;50807;52.436;13.346;2024-02-26T00:15:19;7.93;;;7.20;;
15843;SDS011;50807;52.436;13.346;2024-02-26T00:15:51;7.93;;;6.68;;
15843;SDS011;50807;52.436;13.346;2024-02-26T00:16:22;8.13;;;7.43;;
15843;SDS011;50807;52.436;13.346;2024-02-26T00:16:52;7.53;;;6.93;;
15843;SDS011;50807;52.436;13.346;2024-02-26T00:17:23;7.67;;;6.97;;
15843;SDS011;50807;52.436;13.346;2024-02-26T00:17:55;7.20;;;6.60;;
15843;SDS011;50807;52.436;13.346;2024-02-26T00:18:26;8.57;;;7.13;;
15843;SDS011;50807;52.436;13.346;2024-02-26T00:18:56;7.90;;;7.20;;
15843;SDS011;50807;52.436;13.346;2024-02-26T00:19:27;7.55;;;6.85;;
15843;SDS011;50807;52.436;13.346;2024-02-26T00:19:59;7.90;;;7.20;;
15843;SDS011;50807;52.436;13.346;2024-02-26T00:20:31;7.35;;;6.65;;
15843;SDS011;50807;52.436;13.346;2024-02-26T00:21:02;7.78;;;7.07;;
15843;SDS011;50807;52.436;13.346;2024-02-26T00:21:34;7.50;;;6.80;;
15843;SDS011;50807;52.436;13.346;2024-02-26T00:22:05;7.75;;;7.05;;
15843;SDS011;50807;52.436;13.346;2024-02-26T00:22:36;7.60;;;6.80;;
15843;SDS011;50807;52.436;13.346;2024-02-26T00:23:09;7.18;;;6.47;;
15843;SDS011;50807;52.436;13.346;2024-02-26T00:23:39;7.60;;;6.93;;
15843;SDS011;50807;52.436;13.346;2024-02-26T00:24:11;7.72;;;7.03;;
15843;SDS011;50807;52.436;13.346;2024-02-26T00:24:42;7.20;;;6.60;;
15843;SDS011;50807;52.436;13.346;2024-02-26T00:25:12;7.20;;;6.60;;
15843;SDS011;50807;52.436;13.346;2024-02-26T00:25:43;7.60;;;7.00;;
15843;SDS011;50807;52.436;13.346;2024-02-26T00:26:15;7.60;;;6.90;;
15843;SDS011;50807;52.436;13.346;2024-02-26T00:26:46;7.37;;;6.77;;
15843;SDS011;50807;52.436;13.346;2024-02-26T00:27:16;8.00;;;7.30;;
15843;SDS011;50807;52.436;13.346;2024-02-26T00:27:47;8.15;;;7.45;;
15843;SDS011;50807;52.436;13.346;2024-02-26T00:28:20;7.05;;;6.35;;
15843;SDS011;50807;52.436;13.346;2024-02-26T00:28:50;7.63;;;6.93;;
15843;SDS011;50807;52.436;13.346;2024-02-26T00:29:21;7.55;;;6.85;;
15843;SDS011;50807;52.436;13.346;2024-02-26T00:29:53;8.20;;;7.45;;
15843;SDS011;50807;52.436;13.346;2024-02-26T00:30:24;8.02;;;6.93;;
15843;SDS011;50807;52.436;13.346;2024-02-26T00:30:55;7.30;;;6.70;;
15843;SDS011;50807;52.436;13.346;2024-02-26T00:31:26;5.63;;;5.03;;
15843;SDS011;50807;52.436;13.346;2024-02-26T00:31:57;8.10;;;7.40;;
15843;SDS011;50807;52.436;13.346;2024-02-26T00:32:28;7.63;;;6.93;;
15843;SDS011;50807;52.436;13.346;2024-02-26T00:32:59;7.77;;;7.10;;
15843;SDS011;50807;52.436;13.346;2024-02-26T00:33:30;9.63;;;8.87;;
15843;SDS011;50807;52.436;13.346;2024-02-26T00:34:01;7.83;;;7.03;;
15843;SDS011;50807;52.436;13.346;2024-02-26T00:34:32;7.40;;;6.80;;
15843;SDS011;50807;52.436;13.346;2024-02-26T00:35:03;7.67;;;6.93;;
15843;SDS011;50807;52.436;13.346;2024-02-26T00:35:35;7.32;;;6.63;;
15843;SDS011;50807;52.436;13.346;2024-02-26T00:36:06;8.13;;;7.33;;
15843;SDS011;50807;52.436;13.346;2024-02-26T00:36:37;7.67;;;6.80;;
15843;SDS011;50807;52.436;13.346;2024-02-26T00:37:09;8.43;;;7.60;;
15843;SDS011;50807;52.436;13.346;2024-02-26T00:37:39;7.77;;;6.97;;
15843;SDS011;50807;52.436;13.346;2024-02-26T00:38:12;8.13;;;7.32;;
15843;SDS011;50807;52.436;13.346;2024-02-26T00:38:43;8.40;;;7.60;;
15843;SDS011;50807;52.436;13.346;2024-02-26T00:39:16;7.15;;;6.53;;
15843;SDS011;50807;52.436;13.346;2024-02-26T00:39:47;7.83;;;7.13;;
15843;SDS011;50807;52.436;13.346;2024-02-26T00:40:18;7.40;;;6.73;;
15843;SDS011;50807;52.436;13.346;2024-02-26T00:40:48;6.80;;;6.27;;
15843;SDS011;50807;52.436;13.346;2024-02-26T00:41:20;8.27;;;7.47;;
15843;SDS011;50807;52.436;13.346;2024-02-26T00:41:51;8.97;;;7.00;;
15843;SDS011;50807;52.436;13.346;2024-02-26T00:42:22;7.87;;;7.17;;
15843;SDS011;50807;52.436;13.346;2024-02-26T00:42:53;7.90;;;7.10;;
15843;SDS011;50807;52.436;13.346;2024-02-26T00:43:24;7.22;;;6.53;;
15843;SDS011;50807;52.436;13.346;2024-02-26T00:43:55;7.93;;;7.20;;
15843;SDS011;50807;52.436;13.346;2024-02-26T00:44:26;7.57;;;6.87;;
15843;SDS011;50807;52.436;13.346;2024-02-26T00:44:56;7.90;;;7.17;;
15843;SDS011;50807;52.436;13.346;2024-02-26T00:45:27;7.33;;;6.73;;
15843;SDS011;50807;52.436;13.346;2024-02-26T00:45:59;9.57;;;7.35;;
15843;SDS011;50807;52.436;13.346;2024-02-26T00:46:30;7.72;;;7.03;;
15843;SDS011;50807;52.436;13.346;2024-02-26T00:47:01;7.73;;;6.97;;
15843;SDS011;50807;52.436;13.346;2024-02-26T00:47:32;7.38;;;6.68;;
15843;SDS011;50807;52.436;13.346;2024-02-26T00:48:04;6.18;;;5.68;;
15843;SDS011;50807;52.436;13.346;2024-02-26T00:48:36;7.35;;;6.65;;
15843;SDS011;50807;52.436;13.346;2024-02-26T00:49:07;7.63;;;6.93;;
15843;SDS011;50807;52.436;13.346;2024-02-26T00:49:37;7.40;;;6.80;;
15843;SDS011;50807;52.436;13.346;2024-02-26T00:50:09;7.53;;;6.82;;
15843;SDS011;50807;52.436;13.346;2024-02-26T00:50:40;8.27;;;7.47;;
15843;SDS011;50807;52.436;13.346;2024-02-26T00:51:11;7.83;;;7.07;;
15843;SDS011;50807;52.436;13.346;2024-02-26T00:51:42;7.73;;;6.83;;
15843;SDS011;50807;52.436;13.346;2024-02-26T00:52:13;8.02;;;7.30;;
15843;SDS011;50807;52.436;13.346;2024-02-26T00:52:44;7.73;;;6.93;;
15843;SDS011;50807;52.436;13.346;2024-02-26T00:53:16;8.00;;;7.20;;
15843;SDS011;50807;52.436;13.346;2024-02-26T00:53:48;8.40;;;7.68;;
15843;SDS011;50807;52.436;13.346;2024-02-26T00:54:18;7.87;;;7.13;;
15843;SDS011;50807;52.436;13.346;2024-02-26T00:54:49;7.93;;;7.23;;
15843;SDS011;50807;52.436;13.346;2024-02-26T00:55:20;7.63;;;6.93;;
15843;SDS011;50807;52.436;13.346;2024-02-26T00:55:52;7.82;;;7.07;;
15843;SDS011;50807;52.436;13.346;2024-02-26T00:56:22;7.87;;;7.17;;
15843;SDS011;50807;52.436;13.346;2024-02-26T00:56:53;8.20;;;7.40;;
15843;SDS011;50807;52.436;13.346;2024-02-26T00:57:24;8.67;;;7.60;;
15843;SDS011;50807;52.436;13.346;2024-02-26T00:57:56;7.80;;;7.10;;
15843;SDS011;50807;52.436;13.346;2024-02-26T00:58:27;8.23;;;7.40;;
15843;SDS011;50807;52.436;13.346;2024-02-26T00:58:58;7.82;;;7.13;;
15843;SDS011;50807;52.436;13.346;2024-02-26T00:59:29;7.47;;;6.78;;
15843;SDS011;50807;52.436;13.346;2024-02-26T01:00:01;7.78;;;7.03;;
15843;SDS011;50807;52.436;13.346;2024-02-26T01:00:32;6.93;;;6.32;;
15843;SDS011;50807;52.436;13.346;2024-02-26T01:01:03;6.63;;;6.03;;
15843;SDS011;50807;52.436;13.346;2024-02-26T01:01:33;7.43;;;6.72;;
15843;SDS011;50807;52.436;13.346;2024-02-26T01:02:05;8.27;;;7.50;;
15843;SDS011;50807;52.436;13.346;2024-02-26T01:02:36;7.70;;;7.00;;
15843;SDS011;50807;52.436;13.346;2024-02-26T01:03:08;8.45;;;7.75;;
15843;SDS011;50807;52.436;13.346;2024-02-26T01:03:40;7.63;;;6.93;;
15843;SDS011;50807;52.436;13.346;2024-02-26T01:04:12;7.88;;;7.18;;
15843;SDS011;50807;52.436;13.346;2024-02-26T01:04:43;7.57;;;6.93;;
15843;SDS011;50807;52.436;13.346;2024-02-26T01:05:14;6.70;;;6.10;;
15843;SDS011;50807;52.436;13.346;2024-02-26T01:05:46;7.82;;;7.13;;
15843;SDS011;50807;52.436;13.346;2024-02-26T01:06:17;8.05;;;6.80;;
15843;SDS011;50807;52.436;13.346;2024-02-26T01:06:49;7.65;;;6.95;;
15843;SDS011;50807;52.436;13.346;2024-02-26T01:07:19;6.73;;;6.13;;
15843;SDS011;50807;52.436;13.346;2024-02-26T01:07:50;7.50;;;6.80;;
15843;SDS011;50807;52.436;13.346;2024-02-26T01:08:22;7.47;;;6.80;;
15843;SDS011;50807;52.436;13.346;2024-02-26T01:08:54;7.00;;;6.40;;
15843;SDS011;50807;52.436;13.346;2024-02-26T01:09:25;7.67;;;6.97;;
15843;SDS011;50807;52.436;13.346;2024-02-26T01:09:55;7.47;;;6.77;;
15843;SDS011;50807;52.436;13.346;2024-02-26T01:10:26;7.97;;;7.27;;
15843;SDS011;50807;52.436;13.346;2024-02-26T01:10:58;7.97;;;7.20;;
15843;SDS011;50807;52.436;13.346;2024-02-26T01:11:28;7.37;;;6.77;;
15843;SDS011;50807;52.436;13.346;2024-02-26T01:11:59;7.90;;;7.10;;
15843;SDS011;50807;52.436;13.346;2024-02-26T01:12:32;7.40;;;6.70;;
15843;SDS011;50807;52.436;13.346;2024-02-26T01:13:04;7.70;;;7.03;;
15843;SDS011;50807;52.436;13.346;2024-02-26T01:13:34;8.03;;;7.33;;
15843;SDS011;50807;52.436;13.346;2024-02-26T01:14:05;6.80;;;6.20;;
15843;SDS011;50807;52.436;13.346;2024-02-26T01:14:37;7.95;;;7.20;;
15843;SDS011;50807;52.436;13.346;2024-02-26T01:15:08;8.13;;;7.33;;
15843;SDS011;50807;52.436;13.346;2024-02-26T01:15:39;7.55;;;6.72;;
15843;SDS011;50807;52.436;13.346;2024-02-26T01:16:10;7.57;;;6.87;;
15843;SDS011;50807;52.436;13.346;2024-02-26T01:16:41;5.67;;;5.17;;
15843;SDS011;50807;52.436;13.346;2024-02-26T01:17:13;7.63;;;7.03;;
15843;SDS011;50807;52.436;13.346;2024-02-26T01:17:43;7.40;;;6.60;;
15843;SDS011;50807;52.436;13.346;2024-02-26T01:18:14;7.67;;;6.97;;
15843;SDS011;50807;52.436;13.346;2024-02-26T01:18:45;8.03;;;7.27;;
15843;SDS011;50807;52.436;13.346;2024-02-26T01:19:16;7.50;;;6.78;;
15843;SDS011;50807;52.436;13.346;2024-02-26T01:19:47;7.13;;;6.50;;
15843;SDS011;50807;52.436;13.346;2024-02-26T01:20:18;7.85;;;7.10;;
15843;SDS011;50807;52.436;13.346;2024-02-26T01:20:50;7.32;;;6.68;;
15843;SDS011;50807;52.436;13.346;2024-02-26T01:21:23;7.25;;;6.57;;
15843;SDS011;50807;52.436;13.346;2024-02-26T01:21:54;6.23;;;5.73;;
15843;SDS011;50807;52.436;13.346;2024-02-26T01:22:24;5.80;;;5.30;;
15843;SDS011;50807;52.436;13.346;2024-02-26T01:22:56;7.28;;;6.68;;
15843;SDS011;50807;52.436;13.346;2024-02-26T01:23:28;7.23;;;6.60;;
15843;SDS011;50807;52.436;13.346;2024-02-26T01:23:59;7.40;;;6.70;;
15843;SDS011;50807;52.436;13.346;2024-02-26T01:24:29;7.33;;;6.73;;
15843;SDS011;50807;52.436;13.346;2024-02-26T01:25:01;8.65;;;7.13;;
15843;SDS011;50807;52.436;13.346;2024-02-26T01:25:32;7.70;;;7.00;;
15843;SDS011;50807;52.436;13.346;2024-02-26T01:26:03;7.53;;;6.83;;
15843;SDS011;50807;52.436;13.346;2024-02-26T01:26:34;6.93;;;6.32;;
15843;SDS011;50807;52.436;13.346;2024-02-26T01:27:06;7.65;;;6.95;;
15843;SDS011;50807;52.436;13.346;2024-02-26T01:27:38;7.57;;;6.78;;
15843;SDS011;50807;52.436;13.346;2024-02-26T01:28:11;7.85;;;7.07;;
15843;SDS011;50807;52.436;13.346;2024-02-26T01:28:41;7.57;;;6.93;;
15843;SDS011;50807;52.436;13.346;2024-02-26T01:29:12;6.80;;;6.10;;
15843;SDS011;50807;52.436;13.346;2024-02-26T01:29:44;7.40;;;6.68;;
15843;SDS011;50807;52.436;13.346;2024-02-26T01:30:15;7.53;;;6.80;;
15843;SDS011;50807;52.436;13.346;2024-02-26T01:30:46;8.02;;;7.25;;
15843;SDS011;50807;52.436;13.346;2024-02-26T01:31:17;7.70;;;7.00;;
15843;SDS011;50807;52.436;13.346;2024-02-26T01:31:49;7.25;;;6.65;;
15843;SDS011;50807;52.436;13.346;2024-02-26T01:32:20;7.00;;;6.30;;
15843;SDS011;50807;52.436;13.346;2024-02-26T01:32:50;7.13;;;6.50;;
15843;SDS011;50807;52.436;13.346;2024-02-26T01:33:21;7.30;;;6.60;;
15843;SDS011;50807;52.436;13.346;2024-02-26T01:33:53;6.97;;;6.38;;
15843;SDS011;50807;52.436;13.346;2024-02-26T01:34:24;7.32;;;6.72;;
15843;SDS011;50807;52.436;13.346;2024-02-26T01:34:54;7.03;;;6.43;;
15843;SDS011;50807;52.436;13.346;2024-02-26T01:35:25;7.23;;;6.57;;
15843;SDS011;50807;52.436;13.346;2024-02-26T01:35:57;7.03;;;6.38;;
15843;SDS011;50807;52.436;13.346;2024-02-26T01:36:28;7.13;;;6.53;;
15843;SDS011;50807;52.436;13.346;2024-02-26T01:36:58;7.10;;;6.50;;
15843;SDS011;50807;52.436;13.346;2024-02-26T01:37:29;6.70;;;6.10;;
15843;SDS011;50807;52.436;13.346;2024-02-26T01:38:01;7.32;;;6.63;;
15843;SDS011;50807;52.436;13.346;2024-02-26T01:38:33;7.47;;;6.72;;
15843;SDS011;50807;52.436;13.346;2024-02-26T01:39:04;7.72;;;6.93;;
15843;SDS011;50807;52.436;13.346;2024-02-26T01:39:34;7.07;;;6.47;;
15843;SDS011;50807;52.436;13.346;2024-02-26T01:40:06;7.13;;;6.53;;
15843;SDS011;50807;52.436;13.346;2024-02-26T01:40:39;7.03;;;6.38;;
15843;SDS011;50807;52.436;13.346;2024-02-26T01:41:10;7.63;;;6.93;;
15843;SDS011;50807;52.436;13.346;2024-02-26T01:41:40;7.13;;;6.53;;
15843;SDS011;50807;52.436;13.346;2024-02-26T01:42:12;7.10;;;6.40;;
15843;SDS011;50807;52.436;13.346;2024-02-26T01:42:43;7.90;;;7.07;;
15843;SDS011;50807;52.436;13.346;2024-02-26T01:43:14;6.72;;;6.13;;
15843;SDS011;50807;52.436;13.346;2024-02-26T01:43:45;7.30;;;6.70;;
15843;SDS011;50807;52.436;13.346;2024-02-26T01:44:16;6.95;;;6.35;;
15843;SDS011;50807;52.436;13.346;2024-02-26T01:44:47;6.90;;;6.40;;
15843;SDS011;50807;52.436;13.346;2024-02-26T01:45:18;7.27;;;6.60;;
15843;SDS011;50807;52.436;13.346;2024-02-26T01:45:51;6.88;;;6.28;;
15843;SDS011;50807;52.436;13.346;2024-02-26T01:46:23;8.90;;;6.25;;
15843;SDS011;50807;52.436;13.346;2024-02-26T01:46:53;7.10;;;6.50;;
15843;SDS011;50807;52.436;13.346;2024-02-26T01:47:25;7.32;;;6.72;;
15843;SDS011;50807;52.436;13.346;2024-02-26T01:47:57;6.90;;;6.30;;
15843;SDS011;50807;52.436;13.346;2024-02-26T01:48:29;6.90;;;6.30;;
15843;SDS011;50807;52.436;13.346;2024-02-26T01:49:01;6.72;;;6.22;;
15843;SDS011;50807;52.436;13.346;2024-02-26T01:49:33;6.85;;;6.13;;
15843;SDS011;50807;52.436;13.346;2024-02-26T01:50:05;7.00;;;6.30;;
15843;SDS011;50807;52.436;13.346;2024-02-26T01:50:38;7.35;;;6.75;;
15843;SDS011;50807;52.436;13.346;2024-02-26T01:51:10;6.53;;;5.93;;
15843;SDS011;50807;52.436;13.346;2024-02-26T01:51:44;6.03;;;5.43;;
15843;SDS011;50807;52.436;13.346;2024-02-26T01:52:16;6.93;;;6.22;;
15843;SDS011;50807;52.436;13.346;2024-02-26T01:52:49;7.03;;;6.53;;
15843;SDS011;50807;52.436;13.346;2024-02-26T01:53:21;6.75;;;6.15;;
15843;SDS011;50807;52.436;13.346;2024-02-26T01:53:54;7.38;;;6.57;;
15843;SDS011;50807;52.436;13.346;2024-02-26T01:54:26;6.68;;;6.10;;
15843;SDS011;50807;52.436;13.346;2024-02-26T01:54:57;7.78;;;7.07;;
15843;SDS011;50807;52.436;13.346;2024-02-26T01:55:28;6.70;;;6.10;;
15843;SDS011;50807;52.436;13.346;2024-02-26T01:55:59;7.25;;;6.55;;
15843;SDS011;50807;52.436;13.346;2024-02-26T01:56:30;7.32;;;6.63;;
15843;SDS011;50807;52.436;13.346;2024-02-26T01:57:03;6.75;;;6.15;;
15843;SDS011;50807;52.436;13.346;2024-02-26T01:57:37;6.97;;;6.28;;
15843;SDS011;50807;52.436;13.346;2024-02-26T01:58:08;7.03;;;6.32;;
15843;SDS011;50807;52.436;13.346;2024-02-26T01:58:39;7.03;;;6.38;;
15843;SDS011;50807;52.436;13.346;2024-02-26T01:59:12;6.50;;;6.00;;
15843;SDS011;50807;52.436;13.346;2024-02-26T01:59:43;7.53;;;6.72;;
15843;SDS011;50807;52.436;13.346;2024-02-26T02:00:14;7.40;;;6.75;;
15843;SDS011;50807;52.436;13.346;2024-02-26T02:00:47;7.28;;;6.57;;
15843;SDS011;50807;52.436;13.346;2024-02-26T02:01:19;7.43;;;6.25;;
15843;SDS011;50807;52.436;13.346;2024-02-26T02:01:55;6.90;;;6.30;;
15843;SDS011;50807;52.436;13.346;2024-02-26T02:02:31;6.72;;;6.13;;
15843;SDS011;50807;52.436;13.346;2024-02-26T02:03:02;6.60;;;6.00;;
15843;SDS011;50807;52.436;13.346;2024-02-26T02:03:36;5.90;;;5.32;;
15843;SDS011;50807;52.436;13.346;2024-02-26T02:04:07;6.63;;;6.03;;
15843;SDS011;50807;52.436;13.346;2024-02-26T02:04:38;7.47;;;6.77;;
15843;SDS011;50807;52.436;13.346;2024-02-26T02:05:10;7.13;;;6.50;;
15843;SDS011;50807;52.436;13.346;2024-02-26T02:05:42;6.88;;;6.28;;
15843;SDS011;50807;52.436;13.346;2024-02-26T02:06:14;6.95;;;6.25;;
15843;SDS011;50807;52.436;13.346;2024-02-26T02:06:45;5.30;;;4.90;;
15843;SDS011;50807;52.436;13.346;2024-02-26T02:07:17;5.05;;;4.65;;
15843;SDS011;50807;52.436;13.346;2024-02-26T02:07:50;7.40;;;5.85;;
15843;SDS011;50807;52.436;13.346;2024-02-26T02:08:22;6.68;;;6.00;;
15843;SDS011;50807;52.436;13.346;2024-02-26T02:08:56;6.97;;;6.22;;
15843;SDS011;50807;52.436;13.346;2024-02-26T02:09:27;6.82;;;6.22;;
15843;SDS011;50807;52.436;13.346;2024-02-26T02:09:58;7.38;;;6.75;;
15843;SDS011;50807;52.436;13.346;2024-02-26T02:10:30;6.95;;;6.30;;
15843;SDS011;50807;52.436;13.346;2024-02-26T02:11:01;6.75;;;6.13;;
15843;SDS011;50807;52.436;13.346;2024-02-26T02:11:33;6.47;;;5.93;;
15843;SDS011;50807;52.436;13.346;2024-02-26T02:12:04;6.38;;;5.82;;
15843;SDS011;50807;52.436;13.346;2024-02-26T02:12:37;7.30;;;6.60;;
15843;SDS011;50807;52.436;13.346;2024-02-26T02:13:10;7.15;;;6.38;;
15843;SDS011;50807;52.436;13.346;2024-02-26T02:13:40;7.80;;;7.07;;
15843;SDS011;50807;52.436;13.346;2024-02-26T02:14:11;5.47;;;5.03;;
15843;SDS011;50807;52.436;13.346;2024-02-26T02:14:43;6.82;;;6.22;;
15843;SDS011;50807;52.436;13.346;2024-02-26T02:15:13;6.70;;;6.10;;
15843;SDS011;50807;52.436;13.346;2024-02-26T02:15:45;6.63;;;6.05;;
15843;SDS011;50807;52.436;13.346;2024-02-26T02:16:16;7.00;;;6.30;;
15843;SDS011;50807;52.436;13.346;2024-02-26T02:16:47;7.15;;;6.47;;
15843;SDS011;50807;52.436;13.346;2024-02-26T02:17:18;6.80;;;6.20;;
15843;SDS011;50807;52.436;13.346;2024-02-26T02:17:49;6.60;;;6.00;;
15843;SDS011;50807;52.436;13.346;2024-02-26T02:18:20;6.53;;;6.00;;
15843;SDS011;50807;52.436;13.346;2024-02-26T02:18:52;6.95;;;6.35;;
15843;SDS011;50807;52.436;13.346;2024-02-26T02:19:23;6.93;;;6.33;;
15843;SDS011;50807;52.436;13.346;2024-02-26T02:19:53;7.03;;;6.33;;
15843;SDS011;50807;52.436;13.346;2024-02-26T02:20:26;6.37;;;5.77;;
15843;SDS011;50807;52.436;13.346;2024-02-26T02:21:03;6.45;;;5.90;;
15843;SDS011;50807;52.436;13.346;2024-02-26T02:21:34;6.90;;;6.20;;
15843;SDS011;50807;52.436;13.346;2024-02-26T02:22:05;6.77;;;6.17;;
15843;SDS011;50807;52.436;13.346;2024-02-26T02:22:36;7.27;;;6.57;;
15843;SDS011;50807;52.436;13.346;2024-02-26T02:23:08;7.13;;;6.43;;
15843;SDS011;50807;52.436;13.346;2024-02-26T02:23:39;6.77;;;6.17;;
15843;SDS011;50807;52.436;13.346;2024-02-26T02:24:10;7.00;;;6.00;;
15843;SDS011;50807;52.436;13.346;2024-02-26T02:24:41;6.73;;;5.97;;
15843;SDS011;50807;52.436;13.346;2024-02-26T02:25:13;6.65;;;6.05;;
15843;SDS011;50807;52.436;13.346;2024-02-26T02:25:44;6.97;;;6.30;;
15843;SDS011;50807;52.436;13.346;2024-02-26T02:26:14;6.70;;;6.10;;
15843;SDS011;50807;52.436;13.346;2024-02-26T02:26:46;6.80;;;6.20;;
15843;SDS011;50807;52.436;13.346;2024-02-26T02:27:18;7.10;;;6.47;;
15843;SDS011;50807;52.436;13.346;2024-02-26T02:27:50;6.60;;;6.00;;
15843;SDS011;50807;52.436;13.346;2024-02-26T02:28:23;6.15;;;5.65;;
15843;SDS011;50807;52.436;13.346;2024-02-26T02:28:56;6.25;;;5.65;;
15843;SDS011;50807;52.436;13.346;2024-02-26T02:29:30;6.57;;;5.95;;
15843;SDS011;50807;52.436;13.346;2024-02-26T02:30:00;6.33;;;5.83;;
15843;SDS011;50807;52.436;13.346;2024-02-26T02:30:33;6.28;;;5.68;;
15843;SDS011;50807;52.436;13.346;2024-02-26T02:31:05;5.93;;;5.38;;
15843;SDS011;50807;52.436;13.346;2024-02-26T02:31:37;6.60;;;6.00;;
15843;SDS011;50807;52.436;13.346;2024-02-26T02:32:08;7.13;;;6.43;;
15843;SDS011;50807;52.436;13.346;2024-02-26T02:32:40;5.97;;;5.47;;
15843;SDS011;50807;52.436;13.346;2024-02-26T02:33:12;6.25;;;5.68;;
15843;SDS011;50807;52.436;13.346;2024-02-26T02:33:45;6.65;;;6.05;;
15843;SDS011;50807;52.436;13.346;2024-02-26T02:34:16;6.78;;;6.18;;
15843;SDS011;50807;52.436;13.346;2024-02-26T02:34:47;6.15;;;5.65;;
15843;SDS011;50807;52.436;13.346;2024-02-26T02:35:18;6.00;;;5.50;;
15843;SDS011;50807;52.436;13.346;2024-02-26T02:35:50;6.97;;;6.30;;
15843;SDS011;50807;52.436;13.346;2024-02-26T02:36:24;6.40;;;5.80;;
15843;SDS011;50807;52.436;13.346;2024-02-26T02:36:54;6.23;;;5.67;;
15843;SDS011;50807;52.436;13.346;2024-02-26T02:37:26;5.75;;;5.25;;
15843;SDS011;50807;52.436;13.346;2024-02-26T02:37:57;6.17;;;5.57;;
15843;SDS011;50807;52.436;13.346;2024-02-26T02:38:28;6.20;;;5.70;;
15843;SDS011;50807;52.436;13.346;2024-02-26T02:39:00;5.70;;;5.28;;
15843;SDS011;50807;52.436;13.346;2024-02-26T02:39:33;6.30;;;5.80;;
15843;SDS011;50807;52.436;13.346;2024-02-26T02:40:04;5.90;;;5.37;;
15843;SDS011;50807;52.436;13.346;2024-02-26T02:40:36;5.82;;;5.40;;
15843;SDS011;50807;52.436;13.346;2024-02-26T02:41:08;5.68;;;5.18;;
15843;SDS011;50807;52.436;13.346;2024-02-26T02:41:39;6.27;;;5.77;;
15843;SDS011;50807;52.436;13.346;2024-02-26T02:42:09;5.60;;;5.10;;
15843;SDS011;50807;52.436;13.346;2024-02-26T02:42:40;5.43;;;4.93;;
15843;SDS011;50807;52.436;13.346;2024-02-26T02:43:12;5.35;;;4.95;;
15843;SDS011;50807;52.436;13.346;2024-02-26T02:43:43;5.00;;;4.60;;
15843;SDS011;50807;52.436;13.346;2024-02-26T02:44:13;6.17;;;5.63;;
15843;SDS011;50807;52.436;13.346;2024-02-26T02:44:44;5.83;;;5.33;;
15843;SDS011;50807;52.436;13.346;2024-02-26T02:45:16;5.35;;;4.95;;
15843;SDS011;50807;52.436;13.346;2024-02-26T02:45:46;6.00;;;5.40;;
15843;SDS011;50807;52.436;13.346;2024-02-26T02:46:17;5.60;;;5.10;;
15843;SDS011;50807;52.436;13.346;2024-02-26T02:46:49;5.78;;;5.28;;
15843;SDS011;50807;52.436;13.346;2024-02-26T02:47:23;5.63;;;5.13;;
15843;SDS011;50807;52.436;13.346;2024-02-26T02:47:53;6.00;;;5.50;;
15843;SDS011;50807;52.436;13.346;2024-02-26T02:48:24;5.50;;;5.03;;
15843;SDS011;50807;52.436;13.346;2024-02-26T02:48:55;5.57;;;5.17;;
15843;SDS011;50807;52.436;13.346;2024-02-26T02:49:27;6.00;;;5.45;;
15843;SDS011;50807;52.436;13.346;2024-02-26T02:49:57;4.87;;;4.47;;
15843;SDS011;50807;52.436;13.346;2024-02-26T02:50:28;4.90;;;4.40;;
15843;SDS011;50807;52.436;13.346;2024-02-26T02:51:01;5.30;;;4.80;;
15843;SDS011;50807;52.436;13.346;2024-02-26T02:51:32;5.30;;;4.80;;
15843;SDS011;50807;52.436;13.346;2024-02-26T02:52:03;5.73;;;5.07;;
15843;SDS011;50807;52.436;13.346;2024-02-26T02:52:34;4.82;;;4.43;;
15843;SDS011;50807;52.436;13.346;2024-02-26T02:53:06;5.10;;;4.60;;
15843;SDS011;50807;52.436;13.346;2024-02-26T02:53:37;5.00;;;4.60;;
15843;SDS011;50807;52.436;13.346;2024-02-26T02:54:08;5.10;;;4.70;;
15843;SDS011;50807;52.436;13.346;2024-02-26T02:54:38;4.90;;;4.50;;
15843;SDS011;50807;52.436;13.346;2024-02-26T02:55:11;4.90;;;4.50;;
15843;SDS011;50807;52.436;13.346;2024-02-26T02:55:42;5.03;;;4.63;;
15843;SDS011;50807;52.436;13.346;2024-02-26T02:56:13;5.13;;;4.73;;
15843;SDS011;50807;52.436;13.346;2024-02-26T02:56:44;5.93;;;5.43;;
15843;SDS011;50807;52.436;13.346;2024-02-26T02:57:15;4.93;;;4.53;;
15843;SDS011;50807;52.436;13.346;2024-02-26T02:57:46;5.50;;;4.73;;
15843;SDS011;50807;52.436;13.346;2024-02-26T02:58:17;4.93;;;4.53;;
15843;SDS011;50807;52.436;13.346;2024-02-26T02:58:48;4.43;;;4.13;;
15843;SDS011;50807;52.436;13.346;2024-02-26T02:59:20;5.00;;;4.60;;
15843;SDS011;50807;52.436;13.346;2024-02-26T02:59:50;5.33;;;4.83;;
15843;SDS011;50807;52.436;13.346;2024-02-26T03:00:21;5.50;;;5.00;;
15843;SDS011;50807;52.436;13.346;2024-02-26T03:00:52;4.78;;;4.38;;
15843;SDS011;50807;52.436;13.346;2024-02-26T03:01:25;4.75;;;4.35;;
15843;SDS011;50807;52.436;13.346;2024-02-26T03:01:56;4.97;;;4.47;;
15843;SDS011;50807;52.436;13.346;2024-02-26T03:02:26;4.77;;;4.33;;
15843;SDS011;50807;52.436;13.346;2024-02-26T03:02:57;5.00;;;4.60;;
15843;SDS011;50807;52.436;13.346;2024-02-26T03:03:29;4.75;;;4.35;;
15843;SDS011;50807;52.436;13.346;2024-02-26T03:03:59;5.13;;;4.73;;
15843;SDS011;50807;52.436;13.346;2024-02-26T03:04:30;5.43;;;5.00;;
15843;SDS011;50807;52.436;13.346;2024-02-26T03:05:01;4.93;;;4.53;;
15843;SDS011;50807;52.436;13.346;2024-02-26T03:05:33;5.10;;;4.70;;
15843;SDS011;50807;52.436;13.346;2024-02-26T03:06:05;4.90;;;4.50;;